Etusivu
METAR-TAF:

METAR-TAF

Lentoasemat :

Warsaw Municipal Airport

Warsaw, Indiana, Yhdysvallat

Leveyspiiri: 41-16-28N, Pituuspiiri: 085-50-24W, korkeus merenpinnasta: 259 m

Tämänhetkinen sää

Tämä raportti tehtiin 16 minuuttia sitten, kello 15.55 UTC
Tuuli 13 kn lännestä puuskistuen 17 kn:hen
Lämpötila 9°C
Kosteus 53%
Ilmanpaine 1019 hPa
Näkyvyys: 16.1 km
Hajanaisia pilviä 3900 ft:n korkeudessa

METAR: KASW 141555Z AUTO 27013G17KT 10SM SCT039 09/00 A3009 RMK AO2

Aika: 12:11 (16:11 UTC)


TAF: puuttuu

Säähavainnot ja -ennusteet yli 4000 lentoasemalta (METAR- ja TAF-raportit).

Käytössä olevat sääasemat on merkitty karttaan keltaisilla ja punaisilla pisteillä.

Aseta hiiri pisteen päälle nähdäksesi sääaseman nimen.

Klikkaa sitten nähdäksesi säähavainnot ja -ennusteet.

Kartan vaihtaminen: klikkaa mustalla rastilla varustettuja vihreitä pisteitä, niin voit zoomata sisään; viivalla varustettua vihreää pistettä, niin voit zoomata ulos tai vihreitä nuolia, niin pääset viereisille kartoille.


METAR-TAF: